createdAt,value
2017-07-28T06:51:32.533Z,0
2017-07-28T06:52:45.743Z,0
2017-07-28T06:53:58.453Z,0
2017-07-28T06:55:11.697Z,0
2017-07-28T06:56:24.888Z,0
2017-07-28T06:57:38.143Z,0
2017-07-28T06:58:51.381Z,0
2017-07-28T07:00:04.622Z,0
2017-07-28T07:01:17.809Z,0
2017-07-28T07:02:31.037Z,0
2017-07-28T07:03:43.707Z,0
2017-07-28T07:04:56.932Z,0
2017-07-28T07:06:09.639Z,0
2017-07-28T07:07:22.383Z,0
2017-07-28T07:08:35.575Z,0
2017-07-28T07:09:48.787Z,0
2017-07-28T07:11:02.025Z,0
2017-07-28T07:12:15.283Z,0
2017-07-28T07:13:27.456Z,0
2017-07-28T07:14:40.133Z,0
2017-07-28T07:15:53.393Z,0
2017-07-28T07:17:06.630Z,0
2017-07-28T07:18:19.332Z,0
2017-07-28T07:19:32.557Z,0
2017-07-28T07:20:45.797Z,0
2017-07-28T07:21:59.013Z,0
2017-07-28T07:23:12.223Z,0
2017-07-28T07:24:25.452Z,0
2017-07-28T07:25:38.638Z,0
2017-07-28T07:26:51.344Z,0
2017-07-28T07:28:04.564Z,0
2017-07-28T07:29:17.788Z,0
2017-07-28T07:30:31.020Z,0
2017-07-28T07:31:43.722Z,0
2017-07-28T07:32:56.941Z,0
2017-07-28T07:34:09.654Z,0
2017-07-28T07:35:22.869Z,0
2017-07-28T07:38:18.438Z,0
2017-07-28T07:39:31.632Z,0
2017-07-28T07:40:44.843Z,0
2017-07-28T07:41:57.501Z,0
2017-07-28T07:43:10.198Z,0
2017-07-28T07:44:23.458Z,0
2017-07-28T07:45:36.146Z,0
2017-07-28T07:46:49.367Z,0
2017-07-28T07:48:02.597Z,0
2017-07-28T07:49:15.843Z,0
2017-07-28T07:50:29.057Z,0
2017-07-28T07:51:41.764Z,0
2017-07-28T07:52:53.941Z,0
2017-07-28T07:54:07.147Z,0
2017-07-28T07:55:20.342Z,0
2017-07-28T07:56:33.049Z,0
2017-07-28T07:57:45.794Z,0
2017-07-28T07:58:58.999Z,0
2017-07-28T08:00:11.698Z,0
2017-07-28T08:01:24.406Z,0
2017-07-28T08:02:37.139Z,0
2017-07-28T08:03:50.378Z,0
2017-07-28T08:05:03.595Z,0
2017-07-28T08:06:15.777Z,0
2017-07-28T08:07:28.466Z,0
2017-07-28T08:08:41.641Z,0
2017-07-28T08:09:54.348Z,0
2017-07-28T08:11:07.556Z,0
2017-07-28T08:12:20.769Z,0
2017-07-28T08:13:33.920Z,0
2017-07-28T08:14:46.164Z,0
2017-07-28T08:15:59.352Z,0
2017-07-28T08:17:12.032Z,0
2017-07-28T08:18:25.279Z,0
2017-07-28T08:19:38.493Z,0
2017-07-28T08:20:51.716Z,0
2017-07-28T08:22:04.439Z,0
2017-07-28T08:23:17.163Z,0
2017-07-28T08:24:30.379Z,0
2017-07-28T08:25:43.109Z,0
2017-07-28T08:26:55.805Z,0
2017-07-28T08:28:08.011Z,0
2017-07-28T08:29:20.221Z,0
2017-07-28T08:32:16.257Z,0
2017-07-28T08:33:29.487Z,0
2017-07-28T08:34:42.685Z,0
2017-07-28T08:35:55.899Z,0
2017-07-28T08:37:08.594Z,0
2017-07-28T08:38:21.824Z,0
2017-07-28T08:39:35.062Z,0
2017-07-28T08:40:48.261Z,0
2017-07-28T08:42:01.481Z,0
2017-07-28T08:43:14.685Z,0
2017-07-28T08:44:27.897Z,0
2017-07-28T08:45:41.152Z,0
2017-07-28T08:46:54.372Z,0
2017-07-28T08:48:07.593Z,0
2017-07-28T08:49:20.788Z,0
2017-07-28T08:50:34.014Z,0
2017-07-28T08:51:46.252Z,0
2017-07-28T08:52:58.466Z,0
2017-07-28T08:54:11.696Z,0
2017-07-28T08:55:24.878Z,0
2017-07-28T08:56:37.604Z,0
2017-07-28T08:57:50.832Z,0
2017-07-28T08:59:04.069Z,0
2017-07-28T09:00:17.286Z,0
2017-07-28T09:01:30.520Z,0
2017-07-28T09:02:42.709Z,0
2017-07-28T09:03:54.917Z,0
2017-07-28T09:05:07.114Z,0
2017-07-28T09:06:19.840Z,0
2017-07-28T09:07:32.044Z,0
2017-07-28T09:08:45.275Z,0
2017-07-28T09:09:58.486Z,0
2017-07-28T09:11:10.715Z,0
2017-07-28T09:12:23.920Z,0
2017-07-28T09:13:36.636Z,0
2017-07-28T09:14:49.359Z,0
2017-07-28T09:16:02.564Z,0
2017-07-28T09:17:15.816Z,0
2017-07-28T09:18:29.017Z,0
2017-07-28T09:19:41.734Z,0
2017-07-28T09:20:53.947Z,0
2017-07-28T09:22:07.168Z,0
2017-07-28T09:23:19.926Z,0
2017-07-28T09:24:32.649Z,0
2017-07-28T09:25:45.864Z,0
2017-07-28T09:26:59.049Z,0
2017-07-28T09:28:10.718Z,0
2017-07-28T09:29:23.430Z,0
2017-07-28T09:30:35.622Z,0
2017-07-28T09:31:48.856Z,0
2017-07-28T09:33:02.086Z,0
2017-07-28T09:34:15.324Z,5
2017-07-28T09:35:27.543Z,5
2017-07-28T09:36:40.750Z,5
2017-07-28T09:37:53.447Z,5
2017-07-28T09:39:06.684Z,10
2017-07-28T09:40:19.394Z,10
2017-07-28T09:41:32.604Z,15
2017-07-28T09:42:45.331Z,15
2017-07-28T09:43:58.504Z,20
2017-07-28T09:45:11.188Z,20
2017-07-28T09:46:24.439Z,25
2017-07-28T09:47:36.599Z,30
2017-07-28T09:48:48.272Z,30
2017-07-28T09:50:01.493Z,35
2017-07-28T09:51:14.708Z,40
2017-07-28T09:52:27.409Z,40
2017-07-28T09:53:39.589Z,45
2017-07-28T09:54:52.269Z,50
2017-07-28T09:56:05.508Z,55
2017-07-28T09:57:18.211Z,65
2017-07-28T09:58:30.885Z,70
2017-07-28T09:59:44.101Z,70
2017-07-28T10:00:56.838Z,80
2017-07-28T10:02:10.019Z,80
2017-07-28T10:03:23.287Z,85
2017-07-28T10:04:36.511Z,95
2017-07-28T10:05:49.704Z,110
2017-07-28T10:07:02.408Z,110
2017-07-28T10:08:15.641Z,120
2017-07-28T10:09:28.854Z,125
2017-07-28T10:10:42.083Z,145
2017-07-28T10:11:55.921Z,155
2017-07-28T10:13:09.885Z,175
2017-07-28T10:14:23.783Z,185
2017-07-28T10:15:37.713Z,180
2017-07-28T10:16:51.054Z,195
2017-07-28T10:18:04.404Z,220
2017-07-28T10:19:18.336Z,215
2017-07-28T10:20:31.167Z,200
2017-07-28T10:21:44.536Z,235
2017-07-28T10:22:57.924Z,240
2017-07-28T10:24:11.313Z,240
2017-07-28T10:25:25.198Z,250
2017-07-28T10:26:39.147Z,265
2017-07-28T10:27:53.098Z,280
2017-07-28T10:29:07.026Z,310
2017-07-28T10:30:20.967Z,310
2017-07-28T10:31:34.329Z,320
2017-07-28T10:32:47.135Z,330
2017-07-28T10:34:01.044Z,375
2017-07-28T10:35:14.388Z,350
2017-07-28T10:36:28.268Z,355
2017-07-28T10:37:42.200Z,420
2017-07-28T10:38:55.580Z,425
2017-07-28T10:40:08.946Z,420
2017-07-28T10:41:22.321Z,400
2017-07-28T10:42:35.677Z,430
2017-07-28T10:43:47.923Z,700
2017-07-28T10:45:01.817Z,500
2017-07-28T10:46:15.209Z,765
2017-07-28T10:47:29.141Z,705
2017-07-28T10:48:43.054Z,720
2017-07-28T10:49:56.957Z,615
2017-07-28T10:51:10.902Z,690
2017-07-28T10:52:24.824Z,850
2017-07-28T10:53:38.761Z,585
2017-07-28T10:54:52.682Z,600
2017-07-28T10:56:06.636Z,655
2017-07-28T10:57:19.993Z,480
2017-07-28T10:58:33.399Z,465
2017-07-28T10:59:47.336Z,530
2017-07-28T11:01:01.213Z,555
2017-07-28T11:02:14.591Z,490
2017-07-28T11:03:28.554Z,525
2017-07-28T11:04:41.911Z,785
2017-07-28T11:05:55.823Z,940
2017-07-28T11:07:09.162Z,535
2017-07-28T11:08:23.098Z,540
2017-07-28T11:09:37.051Z,575
2017-07-28T11:10:50.384Z,735
2017-07-28T11:12:04.309Z,555
2017-07-28T11:13:17.685Z,545
2017-07-28T11:15:02.637Z,805
2017-07-28T11:16:15.418Z,710
2017-07-28T11:17:28.750Z,755
2017-07-28T11:18:42.649Z,805
2017-07-28T11:19:56.011Z,770
2017-07-28T11:21:09.962Z,570
2017-07-28T11:22:22.774Z,675
2017-07-28T11:23:35.575Z,765
2017-07-28T11:24:49.492Z,720
2017-07-28T11:26:02.340Z,760
2017-07-28T11:27:15.718Z,760
2017-07-28T11:28:29.674Z,765
2017-07-28T11:29:43.625Z,765
2017-07-28T11:30:56.994Z,780
2017-07-28T11:32:10.930Z,720
2017-07-28T11:33:24.873Z,840
2017-07-28T11:34:38.852Z,815
2017-07-28T11:35:52.799Z,835
2017-07-28T11:37:06.746Z,835
2017-07-28T11:38:20.154Z,835
2017-07-28T11:39:32.992Z,835
2017-07-28T11:40:46.408Z,720
2017-07-28T11:42:00.375Z,870
2017-07-28T11:43:13.743Z,845
2017-07-28T11:44:26.535Z,875
2017-07-28T11:45:40.463Z,790
2017-07-28T11:46:54.402Z,880
2017-07-28T11:48:07.794Z,845
2017-07-28T11:49:21.198Z,820
2017-07-28T11:50:33.971Z,980
2017-07-28T11:51:47.897Z,940
2017-07-28T11:53:01.815Z,770
2017-07-28T11:54:15.754Z,715
2017-07-28T11:55:29.656Z,735
2017-07-28T11:56:43.643Z,960
2017-07-28T11:57:57.584Z,910
2017-07-28T11:59:10.920Z,915
2017-07-28T12:00:24.870Z,920
2017-07-28T12:01:38.820Z,935
2017-07-28T12:02:52.753Z,960
2017-07-28T12:04:06.707Z,955
2017-07-28T12:05:20.051Z,1000
2017-07-28T12:06:34.026Z,1030
2017-07-28T12:07:47.385Z,1050
2017-07-28T12:09:01.296Z,1095
2017-07-28T12:10:14.675Z,1105
2017-07-28T12:11:28.609Z,1155
2017-07-28T12:12:41.994Z,1165
2017-07-28T12:13:55.368Z,1165
2017-07-28T12:15:09.292Z,1200
2017-07-28T12:16:23.182Z,1260
2017-07-28T12:17:37.142Z,1260
2017-07-28T12:18:51.073Z,1335
2017-07-28T12:20:04.414Z,1390
2017-07-28T12:21:19.629Z,1530
2017-07-28T12:22:42.825Z,1705
2017-07-28T12:23:56.212Z,1810
2017-07-28T12:25:09.572Z,1770
2017-07-28T12:26:23.454Z,1725
2017-07-28T12:27:37.415Z,1900
2017-07-28T12:28:51.372Z,1870
2017-07-28T12:30:05.311Z,1720
2017-07-28T12:31:18.702Z,1695
2017-07-28T12:32:32.658Z,1705
2017-07-28T12:33:46.596Z,1775
2017-07-28T12:35:00.705Z,1680
2017-07-28T12:36:14.102Z,1540
2017-07-28T12:37:27.505Z,1565
2017-07-28T12:38:40.373Z,1460
2017-07-28T12:39:54.298Z,1595
2017-07-28T12:41:08.246Z,1785
2017-07-28T12:42:21.081Z,1765
2017-07-28T12:43:35.003Z,1760
2017-07-28T12:44:49.031Z,1865
2017-07-28T12:46:01.852Z,1895
2017-07-28T12:47:14.686Z,1900
2017-07-28T12:48:28.631Z,1825
2017-07-28T12:49:42.550Z,1920
2017-07-28T12:50:56.470Z,1665
2017-07-28T12:52:10.433Z,1950
2017-07-28T12:53:23.946Z,2105
2017-07-28T12:54:37.953Z,1970
2017-07-28T12:55:51.876Z,1935
2017-07-28T12:57:05.439Z,1910
2017-07-28T12:58:18.813Z,1985
2017-07-28T12:59:32.777Z,2020
2017-07-28T13:00:46.721Z,2095
2017-07-28T13:02:00.027Z,2025
2017-07-28T13:03:13.428Z,2000
2017-07-28T13:04:26.802Z,2170
2017-07-28T13:05:40.713Z,2085
2017-07-28T13:06:54.119Z,2010
2017-07-28T13:08:08.089Z,2000
2017-07-28T13:09:21.495Z,2020
2017-07-28T13:10:35.438Z,2010
2017-07-28T13:11:48.254Z,2005
2017-07-28T13:13:02.186Z,2115
2017-07-28T13:14:16.130Z,2110
2017-07-28T13:15:29.484Z,1965
2017-07-28T13:16:42.839Z,2085
2017-07-28T13:17:56.792Z,1995
2017-07-28T13:19:10.143Z,2055
2017-07-28T13:20:23.513Z,2205
2017-07-28T13:21:36.990Z,2085
2017-07-28T13:22:50.933Z,2235
2017-07-28T13:24:04.858Z,2245
2017-07-28T13:25:18.246Z,2245
2017-07-28T13:26:31.044Z,2315
2017-07-28T13:27:45.086Z,2280
2017-07-28T13:28:58.461Z,2065
2017-07-28T13:30:12.441Z,1990
2017-07-28T13:31:26.411Z,1930
2017-07-28T13:32:39.772Z,2170
2017-07-28T13:33:53.708Z,2210
2017-07-28T13:35:07.628Z,2235
2017-07-28T13:36:21.565Z,2275
2017-07-28T13:37:34.948Z,2090
2017-07-28T13:38:48.916Z,2245
2017-07-28T13:40:02.857Z,2230
2017-07-28T13:41:16.254Z,2150
2017-07-28T13:42:29.638Z,2135
2017-07-28T13:43:45.617Z,2425
2017-07-28T13:45:01.244Z,2540
2017-07-28T13:46:15.408Z,2360
2017-07-28T13:47:30.164Z,2440
2017-07-28T13:48:45.901Z,2265
2017-07-28T13:50:04.450Z,2205
2017-07-28T13:51:17.808Z,2255
2017-07-28T13:52:33.889Z,2450
2017-07-28T13:53:47.809Z,2535
2017-07-28T13:55:02.950Z,2535
2017-07-28T13:56:19.675Z,2450
